createdAt,value
2022-10-25T00:00:53.000Z,86.12
2022-10-25T00:01:53.000Z,86.02
2022-10-25T00:02:53.000Z,86.07
2022-10-25T00:03:54.000Z,86.24
2022-10-25T00:04:53.000Z,86.22
2022-10-25T00:05:53.000Z,86.17
2022-10-25T00:06:53.000Z,86.06
2022-10-25T00:07:53.000Z,85.92
2022-10-25T00:08:53.000Z,85.87
2022-10-25T00:09:53.000Z,86.16
2022-10-25T00:10:53.000Z,86.03
2022-10-25T00:11:53.000Z,85.89
2022-10-25T00:12:53.000Z,85.93
2022-10-25T00:13:55.000Z,86.16
2022-10-25T00:14:53.000Z,86.27
2022-10-25T00:15:53.000Z,86.11
2022-10-25T00:16:53.000Z,86.42
2022-10-25T00:17:53.000Z,86.61
2022-10-25T00:18:53.000Z,86.12
2022-10-25T00:19:53.000Z,85.99
2022-10-25T00:20:53.000Z,86.09
2022-10-25T00:21:52.000Z,86.04
2022-10-25T00:22:53.000Z,86.32
2022-10-25T00:23:53.000Z,86.45
2022-10-25T00:24:52.000Z,86.58
2022-10-25T00:25:59.000Z,86.79
2022-10-25T00:26:53.000Z,86.45
2022-10-25T00:27:53.000Z,86.55
2022-10-25T00:28:53.000Z,86.58
2022-10-25T00:29:53.000Z,86.67
2022-10-25T00:31:08.000Z,86.70
2022-10-25T00:31:53.000Z,86.76
2022-10-25T00:32:52.000Z,87.15
2022-10-25T00:33:52.000Z,86.60
2022-10-25T00:34:53.000Z,87.01
2022-10-25T00:35:52.000Z,86.89
2022-10-25T00:36:52.000Z,86.58
2022-10-25T00:37:53.000Z,86.83
2022-10-25T00:38:55.000Z,86.90
2022-10-25T00:39:53.000Z,87.19
2022-10-25T00:40:53.000Z,87.21
2022-10-25T00:41:53.000Z,87.05
2022-10-25T00:42:53.000Z,86.70
2022-10-25T00:44:10.000Z,87.02
2022-10-25T00:44:55.000Z,86.92
2022-10-25T00:45:53.000Z,87.34
2022-10-25T00:46:53.000Z,87.50
2022-10-25T00:47:58.000Z,87.12
2022-10-25T00:49:00.000Z,87.49
2022-10-25T00:50:01.000Z,87.27
2022-10-25T00:50:54.000Z,87.78
2022-10-25T00:51:57.000Z,87.54
2022-10-25T00:52:57.000Z,87.55
2022-10-25T00:53:54.000Z,87.42
2022-10-25T00:54:53.000Z,87.56
2022-10-25T00:56:00.000Z,87.37
2022-10-25T00:56:57.000Z,88.35
2022-10-25T00:58:01.000Z,87.86
2022-10-25T00:59:00.000Z,87.62
2022-10-25T00:59:53.000Z,88.14
2022-10-25T01:00:55.000Z,87.93
2022-10-25T01:01:54.000Z,88.34
2022-10-25T01:02:53.000Z,88.27
2022-10-25T01:02:53.000Z,88.27
2022-10-25T01:03:56.000Z,88.00
2022-10-25T01:04:53.000Z,88.36
2022-10-25T01:05:55.000Z,88.09
2022-10-25T01:06:53.000Z,88.15
2022-10-25T01:07:53.000Z,88.72
2022-10-25T01:08:55.000Z,88.24
2022-10-25T01:09:53.000Z,88.22
2022-10-25T01:10:52.000Z,88.77
2022-10-25T01:11:52.000Z,88.51
2022-10-25T01:12:53.000Z,88.61
2022-10-25T01:13:54.000Z,88.63
2022-10-25T01:14:53.000Z,89.24
2022-10-25T01:16:07.000Z,88.95
2022-10-25T01:17:03.000Z,88.80
2022-10-25T01:18:06.000Z,89.03
2022-10-25T01:19:03.000Z,89.17
2022-10-25T01:20:03.000Z,89.53
2022-10-25T01:21:13.000Z,88.72
2022-10-25T01:22:05.000Z,88.83
2022-10-25T01:23:13.000Z,89.32
2022-10-25T01:24:09.000Z,89.00
2022-10-25T01:25:05.000Z,88.99
2022-10-25T01:26:23.000Z,89.09
2022-10-25T01:27:12.000Z,89.40
2022-10-25T01:28:03.000Z,89.08
2022-10-25T01:29:03.000Z,88.91
2022-10-25T01:30:03.000Z,89.29
2022-10-25T01:31:03.000Z,89.26
2022-10-25T01:32:01.000Z,89.12
2022-10-25T01:33:13.000Z,89.12
2022-10-25T01:34:10.000Z,89.05
2022-10-25T01:35:17.000Z,89.73
2022-10-25T01:36:11.000Z,89.45
2022-10-25T01:37:03.000Z,89.68
2022-10-25T01:38:11.000Z,89.39
2022-10-25T01:39:05.000Z,89.09
2022-10-25T01:40:03.000Z,89.11
2022-10-25T01:41:09.000Z,89.56
2022-10-25T01:42:03.000Z,89.38
2022-10-25T01:43:07.000Z,88.83
2022-10-25T01:44:13.000Z,88.89
2022-10-25T01:45:09.000Z,89.51
2022-10-25T01:46:03.000Z,89.16
2022-10-25T01:47:01.000Z,88.87
2022-10-25T01:48:03.000Z,88.85
2022-10-25T01:48:59.000Z,89.52
2022-10-25T01:50:00.000Z,89.20
2022-10-25T01:50:53.000Z,89.19
2022-10-25T01:51:53.000Z,89.54
2022-10-25T01:52:53.000Z,89.62
2022-10-25T01:53:53.000Z,89.35
2022-10-25T01:54:53.000Z,89.31
2022-10-25T01:55:57.000Z,89.74
2022-10-25T01:57:03.000Z,89.41
2022-10-25T01:58:13.000Z,89.44
2022-10-25T01:59:11.000Z,89.39
2022-10-25T02:00:03.000Z,89.65
2022-10-25T02:01:09.000Z,89.63
2022-10-25T02:02:16.000Z,89.43
2022-10-25T02:03:17.000Z,89.25
2022-10-25T02:04:16.000Z,89.61
2022-10-25T02:05:03.000Z,89.31
2022-10-25T02:06:16.000Z,89.39
2022-10-25T02:07:06.000Z,89.20
2022-10-25T02:08:13.000Z,89.14
2022-10-25T02:09:04.000Z,89.25
2022-10-25T02:10:07.000Z,89.61
2022-10-25T02:11:16.000Z,89.35
2022-10-25T02:11:57.000Z,89.47
2022-10-25T02:13:16.000Z,89.73
2022-10-25T02:14:14.000Z,90.03
2022-10-25T02:15:07.000Z,89.86
2022-10-25T02:16:04.000Z,89.52
2022-10-25T02:16:57.000Z,89.77
2022-10-25T02:18:03.000Z,89.66
2022-10-25T02:18:59.000Z,89.84
2022-10-25T02:19:58.000Z,89.91
2022-10-25T02:20:56.000Z,90.26
2022-10-25T02:21:54.000Z,90.18
2022-10-25T02:22:56.000Z,90.06
2022-10-25T02:23:56.000Z,90.32
2022-10-25T02:24:55.000Z,89.89
2022-10-25T02:25:54.000Z,90.29
2022-10-25T02:26:54.000Z,90.42
2022-10-25T02:27:55.000Z,90.65
2022-10-25T02:28:54.000Z,90.77
2022-10-25T02:29:54.000Z,90.47
2022-10-25T02:30:57.000Z,90.29
2022-10-25T02:31:53.000Z,90.11
2022-10-25T02:32:53.000Z,90.29
2022-10-25T02:33:53.000Z,90.18
2022-10-25T02:34:53.000Z,90.42
2022-10-25T02:36:03.000Z,90.62
2022-10-25T02:36:53.000Z,90.79
2022-10-25T02:37:53.000Z,90.61
2022-10-25T02:38:53.000Z,91.04
2022-10-25T02:39:54.000Z,90.95
2022-10-25T02:40:53.000Z,91.11
2022-10-25T02:41:53.000Z,91.33
2022-10-25T02:42:52.000Z,91.21
2022-10-25T02:43:53.000Z,90.68
2022-10-25T02:44:52.000Z,91.48
2022-10-25T02:45:53.000Z,90.94
2022-10-25T02:46:52.000Z,91.00
2022-10-25T02:47:52.000Z,91.05
2022-10-25T02:48:52.000Z,90.71
2022-10-25T02:49:52.000Z,90.68
2022-10-25T02:50:52.000Z,90.97
2022-10-25T02:51:52.000Z,91.10
2022-10-25T02:52:52.000Z,90.88
2022-10-25T02:53:53.000Z,91.32
2022-10-25T02:54:52.000Z,91.27
2022-10-25T02:56:02.000Z,91.03
2022-10-25T02:56:52.000Z,91.55
2022-10-25T02:57:52.000Z,91.38
2022-10-25T02:58:54.000Z,91.21
2022-10-25T02:59:52.000Z,91.28
2022-10-25T03:00:52.000Z,91.41
2022-10-25T03:01:52.000Z,91.83
2022-10-25T03:02:53.000Z,92.00
2022-10-25T03:03:53.000Z,92.25
2022-10-25T03:04:53.000Z,92.18
2022-10-25T03:05:53.000Z,91.86
2022-10-25T03:06:53.000Z,91.88
2022-10-25T03:07:52.000Z,92.46
2022-10-25T03:08:52.000Z,92.71
2022-10-25T03:09:52.000Z,92.19
2022-10-25T03:10:53.000Z,92.71
2022-10-25T03:11:53.000Z,92.41
2022-10-25T03:12:53.000Z,92.34
2022-10-25T03:13:53.000Z,92.33
2022-10-25T03:14:53.000Z,92.27
2022-10-25T03:15:54.000Z,92.04
2022-10-25T03:16:53.000Z,92.17
2022-10-25T03:17:53.000Z,92.31
2022-10-25T03:18:56.000Z,92.48
2022-10-25T03:19:53.000Z,92.58
2022-10-25T03:20:58.000Z,92.66
2022-10-25T03:21:53.000Z,92.45
2022-10-25T03:22:53.000Z,92.30
2022-10-25T03:23:53.000Z,92.26
2022-10-25T03:24:53.000Z,92.34
2022-10-25T03:25:55.000Z,92.09
2022-10-25T03:26:53.000Z,92.27
2022-10-25T03:27:53.000Z,92.26
2022-10-25T03:28:53.000Z,92.34
2022-10-25T03:29:53.000Z,92.49
2022-10-25T03:30:55.000Z,92.45
2022-10-25T03:31:53.000Z,92.66
2022-10-25T03:32:54.000Z,92.31
2022-10-25T03:33:53.000Z,92.35
2022-10-25T03:34:53.000Z,92.50
2022-10-25T03:35:54.000Z,92.29
2022-10-25T03:36:53.000Z,92.10
2022-10-25T03:37:53.000Z,92.14
2022-10-25T03:38:53.000Z,92.25
2022-10-25T03:39:53.000Z,92.07
2022-10-25T03:40:53.000Z,92.18
2022-10-25T03:41:53.000Z,92.00
2022-10-25T03:42:53.000Z,92.54
2022-10-25T03:43:54.000Z,92.43
2022-10-25T03:44:52.000Z,93.41
2022-10-25T03:45:53.000Z,92.83
2022-10-25T03:46:53.000Z,92.72
2022-10-25T03:47:53.000Z,93.33
2022-10-25T03:48:53.000Z,93.13
2022-10-25T03:49:52.000Z,94.26
2022-10-25T03:50:53.000Z,93.97
2022-10-25T03:51:53.000Z,93.86
2022-10-25T03:52:53.000Z,93.98
2022-10-25T03:53:53.000Z,93.61
2022-10-25T03:54:53.000Z,93.68
2022-10-25T03:55:53.000Z,94.06
2022-10-25T03:56:53.000Z,94.89
2022-10-25T03:57:53.000Z,94.41
2022-10-25T03:58:53.000Z,94.68
2022-10-25T03:59:53.000Z,94.89
2022-10-25T04:00:53.000Z,94.48
2022-10-25T04:01:53.000Z,94.69
2022-10-25T04:02:55.000Z,94.42
2022-10-25T04:03:52.000Z,95.28
2022-10-25T04:04:53.000Z,94.86
2022-10-25T04:05:52.000Z,94.12
2022-10-25T04:06:53.000Z,94.43
2022-10-25T04:07:53.000Z,94.89
2022-10-25T04:08:52.000Z,94.40
2022-10-25T04:09:53.000Z,95.02
2022-10-25T04:10:53.000Z,95.11
2022-10-25T04:11:53.000Z,94.63
2022-10-25T04:12:52.000Z,95.38
2022-10-25T04:13:52.000Z,96.25
2022-10-25T04:14:52.000Z,95.76
2022-10-25T04:15:52.000Z,95.60
2022-10-25T04:16:53.000Z,95.81
2022-10-25T04:17:53.000Z,95.98
2022-10-25T04:18:53.000Z,95.88
2022-10-25T04:19:53.000Z,95.39
2022-10-25T04:20:53.000Z,94.96
2022-10-25T04:21:53.000Z,94.76
2022-10-25T04:22:56.000Z,94.78
2022-10-25T04:23:52.000Z,95.18
2022-10-25T04:24:52.000Z,95.04
2022-10-25T04:25:55.000Z,95.01
2022-10-25T04:26:52.000Z,95.40
2022-10-25T04:27:53.000Z,96.39
2022-10-25T04:28:53.000Z,95.37
2022-10-25T04:29:52.000Z,95.94
2022-10-25T04:30:52.000Z,95.41
2022-10-25T04:31:53.000Z,96.12
2022-10-25T04:32:55.000Z,95.81
2022-10-25T04:33:53.000Z,96.19
2022-10-25T04:34:53.000Z,96.76
2022-10-25T04:35:55.000Z,96.54
2022-10-25T04:36:53.000Z,96.21
2022-10-25T04:37:55.000Z,96.74
2022-10-25T04:38:53.000Z,96.66
2022-10-25T04:39:52.000Z,97.03
2022-10-25T04:40:55.000Z,96.57
2022-10-25T04:41:53.000Z,96.73
2022-10-25T04:42:53.000Z,96.44
2022-10-25T04:43:52.000Z,96.82
2022-10-25T04:44:52.000Z,97.21
2022-10-25T04:45:53.000Z,96.81
2022-10-25T04:46:52.000Z,96.56
2022-10-25T04:47:52.000Z,97.00
2022-10-25T04:48:52.000Z,97.24
2022-10-25T04:49:52.000Z,97.64
2022-10-25T04:50:53.000Z,97.89
2022-10-25T04:51:52.000Z,97.84
2022-10-25T04:52:52.000Z,97.48
2022-10-25T04:53:54.000Z,97.79
2022-10-25T04:54:52.000Z,97.23
2022-10-25T04:55:58.000Z,97.59
2022-10-25T04:56:52.000Z,97.30
2022-10-25T04:57:52.000Z,97.62
2022-10-25T04:58:52.000Z,98.11
2022-10-25T04:59:54.000Z,98.24
2022-10-25T05:00:58.000Z,98.48
2022-10-25T05:01:52.000Z,98.50
2022-10-25T05:02:53.000Z,98.83
2022-10-25T05:03:52.000Z,98.65
2022-10-25T05:04:52.000Z,99.32
2022-10-25T05:05:53.000Z,98.26
2022-10-25T05:06:52.000Z,99.83
2022-10-25T05:07:52.000Z,99.50
2022-10-25T05:08:53.000Z,99.51
2022-10-25T05:09:52.000Z,99.30
2022-10-25T05:10:53.000Z,98.69
2022-10-25T05:11:52.000Z,98.77
2022-10-25T05:12:53.000Z,98.27
2022-10-25T05:13:52.000Z,98.63
2022-10-25T05:14:52.000Z,98.72
2022-10-25T05:15:54.000Z,99.14
2022-10-25T05:16:52.000Z,99.14
2022-10-25T05:17:58.000Z,99.75
2022-10-25T05:18:53.000Z,99.47
2022-10-25T05:19:52.000Z,99.64
2022-10-25T05:20:55.000Z,99.09
2022-10-25T05:21:53.000Z,99.29
2022-10-25T05:22:52.000Z,98.97
2022-10-25T05:23:53.000Z,99.13
2022-10-25T05:24:53.000Z,99.28
2022-10-25T05:26:03.000Z,98.97
2022-10-25T05:26:52.000Z,98.49
2022-10-25T05:27:52.000Z,98.54
2022-10-25T05:28:53.000Z,98.85
2022-10-25T05:29:52.000Z,99.76
2022-10-25T05:30:52.000Z,99.33
2022-10-25T05:31:53.000Z,98.69
2022-10-25T05:32:53.000Z,98.90
2022-10-25T05:33:56.000Z,99.84
2022-10-25T05:34:52.000Z,98.69
2022-10-25T05:35:52.000Z,99.03
2022-10-25T05:36:53.000Z,99.05
2022-10-25T05:37:52.000Z,98.91
2022-10-25T05:38:53.000Z,99.47
2022-10-25T05:39:55.000Z,98.78
2022-10-25T05:40:57.000Z,98.79
2022-10-25T05:42:13.000Z,98.87
2022-10-25T05:43:32.000Z,98.65
2022-10-25T05:43:56.000Z,98.90
2022-10-25T05:44:54.000Z,99.70
2022-10-25T05:46:02.000Z,99.35
2022-10-25T05:46:54.000Z,99.59
2022-10-25T05:47:53.000Z,98.56
2022-10-25T05:48:53.000Z,99.14
2022-10-25T05:49:53.000Z,98.96
2022-10-25T05:50:53.000Z,98.59
2022-10-25T05:51:53.000Z,98.65
2022-10-25T05:52:53.000Z,99.26
2022-10-25T05:53:55.000Z,99.39
2022-10-25T05:54:53.000Z,99.25
2022-10-25T05:55:53.000Z,99.52
2022-10-25T05:56:53.000Z,99.31
2022-10-25T05:57:53.000Z,99.01
2022-10-25T05:58:53.000Z,99.16
2022-10-25T05:59:53.000Z,99.22
2022-10-25T06:00:53.000Z,98.86
2022-10-25T06:01:53.000Z,98.73
2022-10-25T06:02:53.000Z,99.00
2022-10-25T06:03:54.000Z,99.06
2022-10-25T06:04:53.000Z,99.01
2022-10-25T06:05:53.000Z,98.99
2022-10-25T06:06:53.000Z,98.65
2022-10-25T06:07:53.000Z,99.22
2022-10-25T06:08:57.000Z,99.11
2022-10-25T06:09:53.000Z,99.45
2022-10-25T06:10:53.000Z,99.40
2022-10-25T06:11:53.000Z,100.00
2022-10-25T06:12:53.000Z,99.30
2022-10-25T06:13:53.000Z,99.72
2022-10-25T06:14:52.000Z,100.00
2022-10-25T06:15:52.000Z,100.00
2022-10-25T06:16:52.000Z,100.00
2022-10-25T06:17:52.000Z,99.76
2022-10-25T06:18:53.000Z,99.67
2022-10-25T06:19:52.000Z,99.79
2022-10-25T06:20:52.000Z,99.91
2022-10-25T06:21:52.000Z,99.99
2022-10-25T06:22:52.000Z,100.00
2022-10-25T06:23:53.000Z,99.81
2022-10-25T06:24:52.000Z,99.79
2022-10-25T06:25:57.000Z,99.66
2022-10-25T06:26:52.000Z,99.78
2022-10-25T06:27:52.000Z,100.00
2022-10-25T06:28:58.000Z,100.00
2022-10-25T06:29:52.000Z,100.00
2022-10-25T06:30:52.000Z,100.00
2022-10-25T06:31:52.000Z,100.00
2022-10-25T06:32:52.000Z,100.00
2022-10-25T06:33:52.000Z,100.00
2022-10-25T06:34:52.000Z,99.68
2022-10-25T06:35:54.000Z,99.94
2022-10-25T06:36:52.000Z,100.00
2022-10-25T06:37:57.000Z,99.71
2022-10-25T06:38:52.000Z,99.67
2022-10-25T06:39:52.000Z,100.00
2022-10-25T06:41:04.000Z,99.60
2022-10-25T06:41:52.000Z,100.00
2022-10-25T06:42:54.000Z,99.54
2022-10-25T06:43:53.000Z,100.00
2022-10-25T06:44:53.000Z,100.00
2022-10-25T06:45:53.000Z,99.94
2022-10-25T06:46:53.000Z,100.00
2022-10-25T06:47:53.000Z,99.73
2022-10-25T06:48:55.000Z,99.99
2022-10-25T06:49:53.000Z,99.91
2022-10-25T06:51:05.000Z,100.00
2022-10-25T06:51:53.000Z,100.00
2022-10-25T06:52:53.000Z,100.00
2022-10-25T06:53:55.000Z,100.00
2022-10-25T06:54:53.000Z,100.00
2022-10-25T06:55:53.000Z,100.00
2022-10-25T06:56:53.000Z,100.00
2022-10-25T06:57:55.000Z,100.00
2022-10-25T06:58:54.000Z,100.00
2022-10-25T06:59:53.000Z,100.00
2022-10-25T07:00:53.000Z,100.00
2022-10-25T07:01:54.000Z,100.00
2022-10-25T07:02:57.000Z,100.00
2022-10-25T07:03:54.000Z,100.00
2022-10-25T07:04:53.000Z,100.00
2022-10-25T07:05:53.000Z,100.00
2022-10-25T07:06:53.000Z,100.00
2022-10-25T07:07:54.000Z,100.00
2022-10-25T07:08:57.000Z,100.00
2022-10-25T07:09:53.000Z,100.00
2022-10-25T07:10:54.000Z,100.00
2022-10-25T07:11:53.000Z,100.00
2022-10-25T07:12:53.000Z,100.00
2022-10-25T07:13:54.000Z,100.00
2022-10-25T07:14:53.000Z,100.00
2022-10-25T07:16:02.000Z,100.00
2022-10-25T07:16:53.000Z,100.00
2022-10-25T07:17:53.000Z,99.73
2022-10-25T07:18:58.000Z,100.00
2022-10-25T07:19:53.000Z,99.84
2022-10-25T07:20:58.000Z,99.71
2022-10-25T07:21:53.000Z,99.48
2022-10-25T07:22:53.000Z,99.87
2022-10-25T07:23:53.000Z,99.62
2022-10-25T07:24:53.000Z,99.40
2022-10-25T07:25:53.000Z,100.00
2022-10-25T07:26:53.000Z,99.94
2022-10-25T07:27:53.000Z,99.96
2022-10-25T07:28:55.000Z,100.00
2022-10-25T07:29:53.000Z,100.00
2022-10-25T07:30:53.000Z,100.00
2022-10-25T07:31:53.000Z,100.00
2022-10-25T07:32:53.000Z,100.00
2022-10-25T07:33:56.000Z,100.00
2022-10-25T07:34:53.000Z,100.00
2022-10-25T07:35:53.000Z,100.00
2022-10-25T07:36:53.000Z,100.00
2022-10-25T07:37:53.000Z,100.00
2022-10-25T07:38:54.000Z,100.00
2022-10-25T07:39:53.000Z,100.00
2022-10-25T07:40:57.000Z,100.00
2022-10-25T07:41:53.000Z,100.00
2022-10-25T07:42:53.000Z,100.00
2022-10-25T07:43:54.000Z,100.00
2022-10-25T07:44:53.000Z,100.00
2022-10-25T07:45:53.000Z,100.00
2022-10-25T07:46:54.000Z,100.00
2022-10-25T07:47:53.000Z,100.00
2022-10-25T07:48:53.000Z,100.00
2022-10-25T07:49:53.000Z,100.00
2022-10-25T07:50:53.000Z,100.00
2022-10-25T07:51:53.000Z,100.00
2022-10-25T07:52:53.000Z,100.00
2022-10-25T07:53:53.000Z,100.00
2022-10-25T07:54:53.000Z,100.00
2022-10-25T07:55:54.000Z,100.00
2022-10-25T07:56:53.000Z,99.91
2022-10-25T07:58:01.000Z,99.82
2022-10-25T07:58:53.000Z,99.71
2022-10-25T07:59:53.000Z,99.63
2022-10-25T08:00:59.000Z,99.77
2022-10-25T08:01:53.000Z,99.08
2022-10-25T08:02:53.000Z,98.90
2022-10-25T08:03:53.000Z,98.39
2022-10-25T08:04:53.000Z,98.14
2022-10-25T08:05:53.000Z,97.83
2022-10-25T08:06:53.000Z,97.84
2022-10-25T08:07:53.000Z,97.17
2022-10-25T08:08:53.000Z,97.46
2022-10-25T08:09:53.000Z,96.56
2022-10-25T08:10:53.000Z,96.38
2022-10-25T08:11:53.000Z,96.38
2022-10-25T08:12:53.000Z,96.42
2022-10-25T08:13:53.000Z,96.45
2022-10-25T08:14:53.000Z,96.07
2022-10-25T08:15:54.000Z,95.88
2022-10-25T08:16:53.000Z,95.79
2022-10-25T08:17:58.000Z,95.57
2022-10-25T08:18:52.000Z,95.60
2022-10-25T08:19:53.000Z,95.17
2022-10-25T08:20:53.000Z,95.05
2022-10-25T08:21:53.000Z,95.36
2022-10-25T08:22:58.000Z,95.15
2022-10-25T08:23:52.000Z,95.12
2022-10-25T08:24:52.000Z,95.24
2022-10-25T08:25:53.000Z,95.40
2022-10-25T08:26:52.000Z,95.22
2022-10-25T08:27:52.000Z,95.46
2022-10-25T08:28:53.000Z,95.39
2022-10-25T08:29:52.000Z,95.33
2022-10-25T08:30:53.000Z,95.84
2022-10-25T08:31:52.000Z,96.04
2022-10-25T08:32:52.000Z,95.89
2022-10-25T08:33:52.000Z,95.97
2022-10-25T08:34:52.000Z,96.10
2022-10-25T08:35:53.000Z,95.47
2022-10-25T08:36:52.000Z,95.20
2022-10-25T08:37:53.000Z,94.58
2022-10-25T08:38:53.000Z,94.92
2022-10-25T08:39:52.000Z,94.90
2022-10-25T08:41:01.000Z,94.59
2022-10-25T08:41:55.000Z,93.96
2022-10-25T08:43:03.000Z,94.12
2022-10-25T08:44:03.000Z,94.17
2022-10-25T08:45:08.000Z,94.21
2022-10-25T08:45:58.000Z,94.21
2022-10-25T08:47:02.000Z,94.04
2022-10-25T08:47:54.000Z,93.90
2022-10-25T08:49:04.000Z,93.75
2022-10-25T08:50:05.000Z,93.13
2022-10-25T08:51:01.000Z,91.76
2022-10-25T08:51:54.000Z,92.42
2022-10-25T08:52:59.000Z,92.33
2022-10-25T08:53:56.000Z,92.52
2022-10-25T08:54:55.000Z,92.67
2022-10-25T08:55:53.000Z,92.86
2022-10-25T08:57:02.000Z,92.93
2022-10-25T08:57:53.000Z,92.66
2022-10-25T08:58:54.000Z,92.56
2022-10-25T08:59:55.000Z,92.36
2022-10-25T09:00:54.000Z,92.55
2022-10-25T09:01:56.000Z,91.50
2022-10-25T09:02:55.000Z,91.17
2022-10-25T09:03:52.000Z,91.45
2022-10-25T09:04:53.000Z,91.48
2022-10-25T09:06:02.000Z,90.67
2022-10-25T09:07:04.000Z,91.18
2022-10-25T09:08:28.000Z,90.97
2022-10-25T09:09:25.000Z,90.70
2022-10-25T09:10:15.000Z,90.95
2022-10-25T09:11:25.000Z,90.79
2022-10-25T09:12:10.000Z,90.71
2022-10-25T09:13:15.000Z,90.64
2022-10-25T09:14:03.000Z,90.88
2022-10-25T09:15:16.000Z,90.58
2022-10-25T09:16:13.000Z,90.23
2022-10-25T09:17:13.000Z,89.58
2022-10-25T09:17:53.000Z,88.86
2022-10-25T09:18:55.000Z,88.85
2022-10-25T09:20:03.000Z,88.53
2022-10-25T09:20:53.000Z,88.45
2022-10-25T09:22:00.000Z,87.95
2022-10-25T09:22:57.000Z,87.34
2022-10-25T09:24:00.000Z,88.03
2022-10-25T09:25:03.000Z,87.70
2022-10-25T09:26:13.000Z,87.61
2022-10-25T09:27:03.000Z,87.28
2022-10-25T09:28:09.000Z,86.78
2022-10-25T09:29:01.000Z,85.96
2022-10-25T09:30:00.000Z,86.51
2022-10-25T09:30:56.000Z,86.97
2022-10-25T09:31:56.000Z,86.74
2022-10-25T09:33:03.000Z,86.59
2022-10-25T09:34:01.000Z,86.37
2022-10-25T09:34:53.000Z,86.47
2022-10-25T09:35:56.000Z,85.99
2022-10-25T09:37:01.000Z,85.95
2022-10-25T09:37:58.000Z,85.46
2022-10-25T09:39:00.000Z,86.11
2022-10-25T09:39:59.000Z,85.42
2022-10-25T09:41:10.000Z,85.62
2022-10-25T09:41:55.000Z,84.92
2022-10-25T09:43:01.000Z,85.40
2022-10-25T09:44:03.000Z,85.61
2022-10-25T09:44:57.000Z,85.36
2022-10-25T09:46:01.000Z,84.32
2022-10-25T09:47:00.000Z,83.90
2022-10-25T09:48:13.000Z,84.11
2022-10-25T09:49:08.000Z,84.33
2022-10-25T09:50:08.000Z,84.58
2022-10-25T09:51:02.000Z,82.98
2022-10-25T09:52:16.000Z,82.49
2022-10-25T09:53:05.000Z,81.92
2022-10-25T09:53:54.000Z,83.03
2022-10-25T09:55:13.000Z,83.35
2022-10-25T09:55:58.000Z,82.13
2022-10-25T09:56:52.000Z,82.61
2022-10-25T09:57:53.000Z,82.47
2022-10-25T09:58:52.000Z,82.71
2022-10-25T09:59:52.000Z,82.36
2022-10-25T10:00:55.000Z,82.45
2022-10-25T10:01:52.000Z,80.94
2022-10-25T10:02:53.000Z,81.80
2022-10-25T10:04:01.000Z,81.62
2022-10-25T10:04:53.000Z,81.24
2022-10-25T10:05:59.000Z,81.70
2022-10-25T10:06:57.000Z,81.58
2022-10-25T10:07:53.000Z,80.60
2022-10-25T10:09:04.000Z,80.29
2022-10-25T10:09:59.000Z,79.81
2022-10-25T10:10:54.000Z,79.86
2022-10-25T10:11:52.000Z,80.20
2022-10-25T10:13:04.000Z,80.48
2022-10-25T10:14:03.000Z,80.59
2022-10-25T10:15:03.000Z,79.96
2022-10-25T10:16:02.000Z,80.84
2022-10-25T10:16:55.000Z,80.78
2022-10-25T10:18:17.000Z,80.48
2022-10-25T10:19:02.000Z,80.30
2022-10-25T10:20:13.000Z,78.92
2022-10-25T10:21:02.000Z,79.29
2022-10-25T10:21:59.000Z,80.08
2022-10-25T10:22:53.000Z,79.68
2022-10-25T10:23:59.000Z,77.88
2022-10-25T10:24:59.000Z,78.26
2022-10-25T10:25:52.000Z,77.46
2022-10-25T10:26:57.000Z,78.15
2022-10-25T10:27:55.000Z,78.48
2022-10-25T10:29:12.000Z,78.21
2022-10-25T10:30:06.000Z,78.66
2022-10-25T10:30:56.000Z,78.42
2022-10-25T10:31:57.000Z,77.36
2022-10-25T10:32:56.000Z,76.55
2022-10-25T10:33:53.000Z,76.33
2022-10-25T10:34:55.000Z,76.58
2022-10-25T10:35:53.000Z,77.53
2022-10-25T10:37:02.000Z,76.99
2022-10-25T10:38:12.000Z,77.89
2022-10-25T10:38:54.000Z,76.98
2022-10-25T10:40:23.000Z,78.29
2022-10-25T10:41:02.000Z,78.69
2022-10-25T10:42:10.000Z,78.81
2022-10-25T10:42:52.000Z,78.66
2022-10-25T10:44:02.000Z,78.57
2022-10-25T10:45:12.000Z,78.50
2022-10-25T10:45:59.000Z,78.49
2022-10-25T10:46:54.000Z,78.24
2022-10-25T10:47:56.000Z,78.29
2022-10-25T10:48:55.000Z,78.15
2022-10-25T10:49:53.000Z,77.98
2022-10-25T10:50:52.000Z,78.10
2022-10-25T10:51:52.000Z,77.86
2022-10-25T10:53:00.000Z,77.13
2022-10-25T10:53:53.000Z,77.37
2022-10-25T10:54:53.000Z,77.10
2022-10-25T10:55:57.000Z,77.26
2022-10-25T10:56:56.000Z,77.55
2022-10-25T10:57:55.000Z,77.32
2022-10-25T10:58:52.000Z,77.31
2022-10-25T10:59:54.000Z,77.48
2022-10-25T11:01:02.000Z,77.24
2022-10-25T11:01:52.000Z,77.79
2022-10-25T11:02:53.000Z,77.76
2022-10-25T11:03:55.000Z,77.20
2022-10-25T11:04:54.000Z,77.56
2022-10-25T11:05:52.000Z,76.70
2022-10-25T11:07:12.000Z,77.12
2022-10-25T11:08:15.000Z,76.53
2022-10-25T11:09:20.000Z,75.50
2022-10-25T11:10:12.000Z,75.69
2022-10-25T11:11:25.000Z,75.54
2022-10-25T11:12:02.000Z,75.84
2022-10-25T11:13:02.000Z,75.94
2022-10-25T11:13:57.000Z,75.12
2022-10-25T11:14:54.000Z,76.15
2022-10-25T11:16:02.000Z,75.41
2022-10-25T11:17:02.000Z,75.82
2022-10-25T11:17:57.000Z,76.27
2022-10-25T11:19:14.000Z,76.37
2022-10-25T11:20:06.000Z,76.91
2022-10-25T11:21:01.000Z,75.91
2022-10-25T11:22:03.000Z,75.15
2022-10-25T11:23:07.000Z,74.67
2022-10-25T11:24:11.000Z,73.84
2022-10-25T11:25:15.000Z,74.09
2022-10-25T11:26:04.000Z,73.89
2022-10-25T11:27:13.000Z,74.06
2022-10-25T11:28:03.000Z,74.13
2022-10-25T11:29:07.000Z,74.35
2022-10-25T11:30:02.000Z,74.10
2022-10-25T11:31:05.000Z,73.31
2022-10-25T11:32:13.000Z,73.24
2022-10-25T11:33:13.000Z,73.04
2022-10-25T11:34:03.000Z,73.11
2022-10-25T11:35:03.000Z,73.58
2022-10-25T11:36:03.000Z,72.92
2022-10-25T11:37:03.000Z,73.15
2022-10-25T11:38:03.000Z,72.52
2022-10-25T11:39:16.000Z,72.69
2022-10-25T11:40:06.000Z,72.99
2022-10-25T11:41:11.000Z,71.84
2022-10-25T11:42:08.000Z,72.29
2022-10-25T11:43:13.000Z,73.35
2022-10-25T11:44:07.000Z,73.10
2022-10-25T11:45:09.000Z,72.25
2022-10-25T11:46:02.000Z,71.64
2022-10-25T11:47:16.000Z,71.77
2022-10-25T11:48:13.000Z,71.70
2022-10-25T11:49:03.000Z,71.77
2022-10-25T11:50:03.000Z,69.78
2022-10-25T11:51:06.000Z,70.96
2022-10-25T11:52:03.000Z,71.45
2022-10-25T11:53:03.000Z,71.98
2022-10-25T11:54:16.000Z,72.18
2022-10-25T11:55:15.000Z,71.92
2022-10-25T11:56:12.000Z,71.20
2022-10-25T11:57:13.000Z,70.69
2022-10-25T11:58:07.000Z,71.90
2022-10-25T11:59:03.000Z,71.87
2022-10-25T12:00:06.000Z,72.19
2022-10-25T12:01:05.000Z,70.94
2022-10-25T12:02:16.000Z,70.47
2022-10-25T12:03:26.000Z,70.30
2022-10-25T12:04:03.000Z,71.16
2022-10-25T12:05:16.000Z,71.46
2022-10-25T12:06:07.000Z,71.84
2022-10-25T12:07:16.000Z,71.91
2022-10-25T12:08:03.000Z,72.03
2022-10-25T12:09:03.000Z,72.86
2022-10-25T12:10:07.000Z,71.94
2022-10-25T12:11:03.000Z,71.97
2022-10-25T12:12:00.000Z,72.25
2022-10-25T12:12:58.000Z,72.33
2022-10-25T12:14:02.000Z,72.86
2022-10-25T12:14:58.000Z,72.38
2022-10-25T12:15:57.000Z,73.06
2022-10-25T12:16:56.000Z,72.95
2022-10-25T12:17:53.000Z,73.09
2022-10-25T12:19:05.000Z,72.91
2022-10-25T12:19:55.000Z,72.04
2022-10-25T12:20:54.000Z,72.15
2022-10-25T12:22:03.000Z,72.08
2022-10-25T12:22:58.000Z,72.47
2022-10-25T12:23:54.000Z,72.84
2022-10-25T12:25:01.000Z,72.89
2022-10-25T12:26:03.000Z,72.56
2022-10-25T12:26:54.000Z,72.90
2022-10-25T12:28:00.000Z,72.70
2022-10-25T12:28:56.000Z,72.09
2022-10-25T12:30:03.000Z,72.29
2022-10-25T12:30:59.000Z,73.14
2022-10-25T12:32:00.000Z,72.39
2022-10-25T12:33:01.000Z,72.30
2022-10-25T12:34:00.000Z,72.56
2022-10-25T12:34:56.000Z,72.96
2022-10-25T12:35:59.000Z,72.68
2022-10-25T12:36:56.000Z,72.56
2022-10-25T12:37:59.000Z,72.99
2022-10-25T12:38:54.000Z,72.65
2022-10-25T12:39:53.000Z,73.23
2022-10-25T12:40:59.000Z,73.60
2022-10-25T12:41:59.000Z,73.49
2022-10-25T12:43:00.000Z,72.50
2022-10-25T12:44:16.000Z,72.55
2022-10-25T12:45:13.000Z,73.25
2022-10-25T12:46:03.000Z,73.50
2022-10-25T12:47:07.000Z,72.72
2022-10-25T12:48:03.000Z,72.92
2022-10-25T12:49:19.000Z,73.26
2022-10-25T12:50:13.000Z,73.77